Home   Weather   Germany   Viersen   Past weeks
Flag for Germany

Past Weather in Viersen, North Rhine-Westphalia, Germany — Yesterday and Last 2 Weeks

Currently: 34 °F. Clear. (Weather station: Monchengladbach Airport, Germany). See more current weather

Past Weather in Viersen — Graph

°F

Viersen Temperature Yesterday

Maximum temperature yesterday: 43 °F (at 2:20 pm)
Minimum temperature yesterday: 28 °F (at 9:20 pm)
Average temperature yesterday: 36 °F

High & Low Weather Summary for the Past Weeks

 TemperatureHumidityPressure
High68 °F (Feb 24, 1:50 pm)100% (Feb 26, 1:20 am)30.74 "Hg (Feb 26, 1:20 am)
Low23 °F (Mar 6, 5:20 am)34% (Mar 5, 5:20 pm)29.89 "Hg (Feb 20, 2:20 pm)
Average47 °F76%30.35 "Hg
* Reported Feb 19 8:20 am — Mar 6 8:50 am, Viersen. Weather by CustomWeather, © 2021

Note: Actual official high and low records may vary slightly from our data, if they occured in-between our weather recording intervals... More about our weather records

Viersen Weather History for the Previous 24 Hours

Scroll right to see more
 ConditionsComfort  
Time TempWeatherWind HumidityBarometerVisibility
8:50 am
Sat, Mar 6
32 °FSunny.No wind80%30.54 "Hg10 mi
8:20 am28 °FSunny.No wind86%30.54 "Hg10 mi
7:50 am25 °FSunny.No wind93%30.54 "Hg10 mi
7:20 am23 °FSunny.1 mph93%30.54 "HgN/A
6:50 am23 °FSunny.No wind93%30.54 "HgN/A
6:20 am23 °FSunny.No wind100%30.51 "HgN/A
5:50 am23 °FSunny.No wind93%30.51 "HgN/A
5:20 am23 °FSunny.No wind93%30.51 "HgN/A
4:50 am25 °FSunny.No wind93%30.51 "HgN/A
4:20 am25 °FSunny.1 mph93%30.51 "HgN/A
3:50 am25 °FSunny.2 mph86%30.51 "HgN/A
3:20 am25 °FSunny.2 mph86%30.51 "HgN/A
2:50 am25 °FSunny.2 mph93%30.51 "HgN/A
2:20 am25 °FSunny.No wind93%30.51 "HgN/A
1:50 am25 °FSunny.1 mph93%30.54 "HgN/A
1:20 am27 °FSunny.2 mph86%30.51 "HgN/A
12:50 am27 °FSunny.2 mph86%30.51 "HgN/A
12:20 am27 °FSunny.1 mph86%30.51 "HgN/A
11:50 pm
Fri, Mar 5
28 °FSunny.2 mph80%30.51 "HgN/A
11:20 pm28 °FSunny.2 mph80%30.51 "HgN/A
10:50 pm28 °FSunny.No wind80%30.51 "HgN/A
10:20 pm28 °FClear.1 mph74%30.51 "HgN/A
9:50 pm28 °FClear.No wind80%30.51 "HgN/A
9:20 pm28 °FClear.1 mph74%30.48 "HgN/A
8:50 pm30 °FClear.2 mph69%30.48 "HgN/A
8:20 pm32 °FClear.2 mph69%30.48 "Hg10 mi
7:50 pm32 °FClear.3 mph60%30.45 "Hg10 mi
7:20 pm36 °FClear.3 mph52%30.45 "Hg10 mi
6:50 pm39 °FClear.3 mph39%30.45 "Hg10 mi
6:20 pm41 °FClear.6 mph36%30.42 "Hg10 mi
5:50 pm41 °FClear.7 mph36%30.42 "Hg10 mi
5:20 pm43 °FPassing clouds.8 mph34%30.42 "HgN/A
4:50 pm43 °FPassing clouds.7 mph36%30.39 "HgN/A
4:20 pm43 °FPassing clouds.9 mph36%30.39 "HgN/A
3:50 pm43 °FPassing clouds.10 mph36%30.39 "HgN/A
3:20 pm43 °FPassing clouds.9 mph36%30.39 "HgN/A
2:50 pm43 °FPassing clouds.12 mph39%30.39 "HgN/A
2:20 pm43 °FPassing clouds.9 mph46%30.39 "HgN/A
1:50 pm41 °FPassing clouds.9 mph45%30.39 "HgN/A
1:20 pm41 °FPassing clouds.9 mph49%30.39 "HgN/A
12:50 pm41 °FPassing clouds.10 mph49%30.39 "HgN/A
12:20 pm41 °FPassing clouds.9 mph53%30.39 "HgN/A
11:50 am39 °FPassing clouds.9 mph56%30.36 "HgN/A
11:20 am37 °FPassing clouds.8 mph60%30.36 "HgN/A
10:50 am37 °FClear.9 mph65%30.36 "Hg10 mi
10:20 am36 °FPassing clouds.10 mph70%30.36 "HgN/A
Weather by CustomWeather, © 2021

See weather overview